createdAt,value
2022-11-25T00:02:30.715Z,98856.27
2022-11-25T00:05:42.625Z,98857.97
2022-11-25T00:08:57.914Z,98858.88
2022-11-25T00:12:09.970Z,98869.25
2022-11-25T00:15:22.017Z,98857.70
2022-11-25T00:18:33.746Z,98851.47
2022-11-25T00:21:45.534Z,98862.69
2022-11-25T00:24:57.235Z,98870.45
2022-11-25T00:28:08.993Z,98877.20
2022-11-25T00:31:23.699Z,98877.91
2022-11-25T00:34:35.818Z,98871.49
2022-11-25T00:37:47.828Z,98874.88
2022-11-25T00:41:12.041Z,98881.11
2022-11-25T00:44:41.653Z,98882.95
2022-11-25T00:47:54.004Z,98870.64
2022-11-25T00:51:05.731Z,98871.83
2022-11-25T00:54:19.995Z,98879.06
2022-11-25T00:57:31.770Z,98878.25
2022-11-25T01:00:44.969Z,98873.84
2022-11-25T01:03:58.248Z,98881.44
2022-11-25T01:07:10.247Z,98885.67
2022-11-25T01:10:22.501Z,98887.20
2022-11-25T01:13:34.332Z,98889.63
2022-11-25T01:16:46.192Z,98891.24
2022-11-25T01:19:57.930Z,98889.48
2022-11-25T01:23:09.645Z,98891.09
2022-11-25T01:26:24.044Z,98883.91
2022-11-25T01:29:36.169Z,98890.23
2022-11-25T01:32:48.490Z,98884.06
2022-11-25T01:36:00.148Z,98892.61
2022-11-25T01:39:12.717Z,98891.58
2022-11-25T01:42:25.583Z,98889.72
2022-11-25T01:45:45.767Z,98880.10
2022-11-25T01:49:01.851Z,98883.57
2022-11-25T01:52:21.939Z,98879.44
2022-11-25T01:55:37.096Z,98879.25
2022-11-25T01:58:51.423Z,98879.09
2022-11-25T02:02:04.827Z,98879.91
2022-11-25T02:05:20.793Z,98882.47
2022-11-25T02:08:37.445Z,98883.23
2022-11-25T02:11:51.197Z,98882.38
2022-11-25T02:15:12.377Z,98880.52
2022-11-25T02:18:24.586Z,98880.62
2022-11-25T02:22:08.893Z,98877.23
2022-11-25T02:25:26.376Z,98872.00
2022-11-25T02:28:39.433Z,98870.39
2022-11-25T02:31:54.609Z,98876.48
2022-11-25T02:35:06.467Z,98873.86
2022-11-25T02:38:23.268Z,98869.82
2022-11-25T02:41:39.718Z,98877.91
2022-11-25T02:44:51.377Z,98867.35
2022-11-25T02:48:03.129Z,98867.54
2022-11-25T02:51:19.124Z,98870.40
2022-11-25T02:54:31.723Z,98873.02
2022-11-25T02:57:45.366Z,98884.39
2022-11-25T03:00:57.651Z,98886.02
2022-11-25T03:04:10.368Z,98880.77
2022-11-25T03:07:22.743Z,98865.92
2022-11-25T03:10:35.074Z,98862.97
2022-11-25T03:13:47.280Z,98866.16
2022-11-25T03:17:00.103Z,98866.77
2022-11-25T03:20:15.376Z,98870.91
2022-11-25T03:23:27.540Z,98887.37
2022-11-25T03:26:39.784Z,98880.18
2022-11-25T03:29:52.554Z,98883.46
2022-11-25T03:33:05.816Z,98888.70
2022-11-25T03:36:18.887Z,98895.70
2022-11-25T03:39:32.939Z,98896.65
2022-11-25T03:42:46.352Z,98894.79
2022-11-25T03:45:58.528Z,98900.88
2022-11-25T03:49:10.697Z,98905.92
2022-11-25T03:52:22.478Z,98905.92
2022-11-25T03:55:34.901Z,98903.97
2022-11-25T03:58:46.789Z,98905.77
2022-11-25T04:01:59.224Z,98907.30
2022-11-25T04:05:13.051Z,98908.78
2022-11-25T04:08:24.941Z,98905.24
2022-11-25T04:11:48.040Z,98908.62
2022-11-25T04:15:00.087Z,98909.28
2022-11-25T04:18:12.037Z,98909.13
2022-11-25T04:21:24.315Z,98906.41
2022-11-25T04:24:37.250Z,98911.46
2022-11-25T04:27:49.606Z,98906.06
2022-11-25T04:31:03.502Z,98913.73
2022-11-25T04:34:15.638Z,98916.20
2022-11-25T04:37:29.553Z,98908.15
2022-11-25T04:40:43.112Z,98915.09
2022-11-25T04:43:56.810Z,98922.77
2022-11-25T04:47:08.865Z,98925.22
2022-11-25T04:50:25.541Z,98927.84
2022-11-25T04:53:42.699Z,98929.61
2022-11-25T04:56:55.406Z,98928.59
2022-11-25T05:00:11.831Z,98934.75
2022-11-25T05:03:23.868Z,98940.94
2022-11-25T05:06:36.088Z,98947.09
2022-11-25T05:09:50.032Z,98947.09
2022-11-25T05:13:03.940Z,98947.95
2022-11-25T05:16:17.034Z,98957.42
2022-11-25T05:19:29.278Z,98957.42
2022-11-25T05:22:42.099Z,98954.20
2022-11-25T05:25:55.870Z,98959.53
2022-11-25T05:29:09.774Z,98962.25
2022-11-25T05:32:22.069Z,98958.88
2022-11-25T05:35:34.305Z,98964.96
2022-11-25T05:38:54.019Z,98961.49
2022-11-25T05:42:07.894Z,98964.88
2022-11-25T05:45:19.892Z,98964.88
2022-11-25T05:48:32.062Z,98969.16
2022-11-25T05:51:45.950Z,98978.73
2022-11-25T05:54:57.744Z,98979.48
2022-11-25T05:58:10.635Z,98985.48
2022-11-25T06:01:23.741Z,98989.78
2022-11-25T06:04:35.790Z,98993.16
2022-11-25T06:07:48.037Z,98997.48
2022-11-25T06:11:00.581Z,98999.16
2022-11-25T06:14:12.486Z,98988.77
2022-11-25T06:17:24.515Z,98995.63
2022-11-25T06:20:38.428Z,98999.83
2022-11-25T06:23:50.811Z,99006.67
2022-11-25T06:27:03.470Z,99005.77
2022-11-25T06:30:18.983Z,99006.42
2022-11-25T06:33:32.568Z,99006.23
2022-11-25T06:36:46.229Z,99008.80
2022-11-25T06:39:57.977Z,99014.86
2022-11-25T06:43:11.579Z,99012.99
2022-11-25T06:46:26.241Z,99014.70
2022-11-25T06:49:38.094Z,99016.22
2022-11-25T06:52:49.867Z,99019.50
2022-11-25T06:56:16.495Z,99025.50
2022-11-25T06:59:28.792Z,99023.45
2022-11-25T07:02:44.213Z,99033.78
2022-11-25T07:05:55.026Z,99025.81
2022-11-25T07:09:08.078Z,99027.52
2022-11-25T07:12:19.748Z,99021.23
2022-11-25T07:15:31.586Z,99026.31
2022-11-25T07:18:45.243Z,99022.59
2022-11-25T07:21:57.033Z,99027.64
2022-11-25T07:25:09.504Z,99023.34
2022-11-25T07:28:21.194Z,99041.51
2022-11-25T07:31:35.698Z,99037.02
2022-11-25T07:34:47.955Z,99030.09
2022-11-25T07:37:59.543Z,99040.59
2022-11-25T07:41:17.695Z,99038.53
2022-11-25T07:44:29.397Z,99045.29
2022-11-25T07:47:49.216Z,99040.80
2022-11-25T07:51:00.959Z,99048.41
2022-11-25T07:54:15.914Z,99049.06
2022-11-25T07:57:27.743Z,99051.44
2022-11-25T08:00:39.395Z,99053.95
2022-11-25T08:03:53.985Z,99061.57
2022-11-25T08:07:05.932Z,99065.97
2022-11-25T08:10:18.567Z,99071.05
2022-11-25T08:13:30.317Z,99075.55
2022-11-25T08:16:42.370Z,99074.03
2022-11-25T08:19:54.527Z,99074.09
2022-11-25T08:23:06.158Z,99070.66
2022-11-25T08:26:20.979Z,99076.72
2022-11-25T08:29:32.595Z,99080.10
2022-11-25T08:32:46.185Z,99083.08
2022-11-25T08:36:01.795Z,99081.56
2022-11-25T08:39:36.241Z,99090.29
2022-11-25T08:42:28.476Z,99092.16
2022-11-25T08:45:40.135Z,99085.99
2022-11-25T08:48:52.266Z,99089.38
2022-11-25T08:52:04.067Z,99083.27
2022-11-25T08:55:16.878Z,99092.75
2022-11-25T08:58:28.675Z,99091.05
2022-11-25T09:01:40.865Z,99093.67
2022-11-25T09:04:52.677Z,99095.28
2022-11-25T09:08:04.800Z,99087.16
2022-11-25T09:11:18.695Z,99107.41
2022-11-25T09:14:30.578Z,99098.42
2022-11-25T09:17:42.291Z,99109.67
2022-11-25T09:20:54.642Z,99098.16
2022-11-25T09:24:06.431Z,99103.31
2022-11-25T09:27:18.258Z,99106.33
2022-11-25T09:30:30.436Z,99107.77
2022-11-25T09:33:42.945Z,99096.78
2022-11-25T09:36:54.753Z,99105.97
2022-11-25T09:40:06.545Z,99110.69
2022-11-25T09:43:43.118Z,99099.98
2022-11-25T09:47:02.292Z,99108.45
2022-11-25T09:50:24.573Z,99109.59
2022-11-25T09:53:49.307Z,99107.98
2022-11-25T09:57:07.389Z,99098.72
2022-11-25T10:00:24.794Z,99101.89
2022-11-25T10:03:43.538Z,99104.63
2022-11-25T10:07:01.273Z,99099.74
2022-11-25T10:10:23.717Z,99107.91
2022-11-25T10:13:44.456Z,99100.56
2022-11-25T10:17:01.289Z,99102.06
2022-11-25T10:20:19.613Z,99099.91
2022-11-25T10:23:36.262Z,99098.68
2022-11-25T10:26:52.998Z,99100.92
2022-11-25T10:30:16.070Z,99095.48
2022-11-25T10:33:30.977Z,99102.42
2022-11-25T10:36:46.447Z,99106.83
2022-11-25T10:39:58.451Z,99103.38
2022-11-25T10:43:18.496Z,99102.69
2022-11-25T10:47:11.145Z,99107.19
2022-11-25T10:49:59.468Z,99107.19
2022-11-25T10:53:19.539Z,99103.53
2022-11-25T10:56:31.443Z,99101.27
2022-11-25T10:59:45.082Z,99098.03
2022-11-25T11:02:57.463Z,99103.65
2022-11-25T11:06:10.512Z,99105.14
2022-11-25T11:09:46.383Z,99103.08
2022-11-25T11:13:08.208Z,99106.56
2022-11-25T11:16:36.527Z,99102.97
2022-11-25T11:19:48.630Z,99099.88
2022-11-25T11:23:09.567Z,99109.38
2022-11-25T11:26:30.354Z,99097.42
2022-11-25T11:29:42.572Z,99100.98
2022-11-25T11:33:06.385Z,99098.67
2022-11-25T11:36:30.391Z,99089.92
2022-11-25T11:40:03.109Z,99094.05
2022-11-25T11:44:04.538Z,99102.86
2022-11-25T11:47:25.078Z,99105.39
2022-11-25T11:50:43.743Z,99107.09
2022-11-25T11:54:04.043Z,99102.47
2022-11-25T11:57:22.632Z,99099.84
2022-11-25T12:00:39.204Z,99107.34
2022-11-25T12:03:58.592Z,99107.68
2022-11-25T12:07:15.954Z,99111.40
2022-11-25T12:10:35.160Z,99104.14
2022-11-25T12:13:55.349Z,99109.85
2022-11-25T12:17:11.914Z,99113.97
2022-11-25T12:20:32.047Z,99108.89
2022-11-25T12:23:53.006Z,99115.11
2022-11-25T12:27:09.400Z,99114.16
2022-11-25T12:30:26.474Z,99118.38
2022-11-25T12:33:43.821Z,99120.16
2022-11-25T12:36:56.223Z,99115.01
2022-11-25T12:40:16.252Z,99121.58
2022-11-25T12:43:38.396Z,99120.31
2022-11-25T12:46:54.070Z,99119.17
2022-11-25T12:50:06.138Z,99115.38
2022-11-25T12:53:24.363Z,99118.20
2022-11-25T12:56:46.402Z,99119.91
2022-11-25T13:04:11.027Z,99114.64
2022-11-25T13:07:42.739Z,99120.65
2022-11-25T13:11:12.212Z,99118.87
2022-11-25T13:14:31.646Z,99123.91
2022-11-25T13:17:47.791Z,99119.50
2022-11-25T13:21:00.749Z,99128.14
2022-11-25T13:24:28.565Z,99125.59
2022-11-25T13:27:58.839Z,99122.95
2022-11-25T13:31:27.699Z,99123.80
2022-11-25T13:34:40.728Z,99131.70
2022-11-25T13:37:52.532Z,99125.51
2022-11-25T13:41:24.809Z,99126.44
2022-11-25T13:44:39.207Z,99133.41
2022-11-25T13:47:54.633Z,99136.45
2022-11-25T13:51:27.218Z,99134.97
2022-11-25T13:54:47.928Z,99134.97
2022-11-25T13:58:22.450Z,99134.97
2022-11-25T14:01:34.460Z,99132.44
2022-11-25T14:04:53.954Z,99143.06
2022-11-25T14:08:12.567Z,99131.36
2022-11-25T14:11:56.911Z,99141.27
2022-11-25T14:15:28.925Z,99135.27
2022-11-25T14:19:51.669Z,99144.95
2022-11-25T14:23:26.658Z,99137.79
2022-11-25T14:26:50.050Z,99135.56
2022-11-25T14:29:58.921Z,99151.47
2022-11-25T14:33:14.464Z,99142.94
2022-11-25T14:36:30.742Z,99141.23
2022-11-25T14:39:48.117Z,99148.09
2022-11-25T14:43:04.979Z,99151.02
2022-11-25T14:46:25.669Z,99153.13
2022-11-25T14:50:11.792Z,99152.48
2022-11-25T14:53:06.472Z,99152.88
2022-11-25T14:56:19.855Z,99162.84
2022-11-25T14:59:34.014Z,99158.94
2022-11-25T15:02:58.029Z,99167.12
2022-11-25T15:06:15.385Z,99166.13
2022-11-25T15:09:31.472Z,99163.23
2022-11-25T15:12:46.434Z,99179.41
2022-11-25T15:15:59.723Z,99174.52
2022-11-25T15:19:19.040Z,99177.53
2022-11-25T15:22:31.365Z,99187.41
2022-11-25T15:25:54.151Z,99187.14
2022-11-25T15:29:08.895Z,99190.89
2022-11-25T15:32:24.562Z,99192.39
2022-11-25T15:35:37.822Z,99192.56
2022-11-25T15:38:52.293Z,99198.67
2022-11-25T15:42:14.484Z,99198.84
2022-11-25T15:45:29.420Z,99194.16
2022-11-25T15:48:46.332Z,99192.85
2022-11-25T15:52:03.399Z,99201.00
2022-11-25T15:55:27.995Z,99202.67
2022-11-25T15:58:40.698Z,99197.42
2022-11-25T16:01:52.861Z,99203.73
2022-11-25T16:05:40.758Z,99208.49
2022-11-25T16:09:00.751Z,99200.51
2022-11-25T16:12:22.298Z,99200.51
2022-11-25T16:15:52.923Z,99202.22
2022-11-25T16:19:22.528Z,99204.91
2022-11-25T16:22:35.039Z,99206.42
2022-11-25T16:25:48.939Z,99202.22
2022-11-25T16:29:04.373Z,99201.66
2022-11-25T16:32:22.648Z,99201.29
2022-11-25T16:35:34.625Z,99201.19
2022-11-25T16:38:46.510Z,99200.44
2022-11-25T16:42:05.691Z,99200.63
2022-11-25T16:45:26.563Z,99203.36
2022-11-25T16:48:39.231Z,99212.06
2022-11-25T16:51:54.618Z,99215.65
2022-11-25T16:55:07.104Z,99216.87
2022-11-25T16:58:25.253Z,99215.26
2022-11-25T17:01:39.393Z,99221.63
2022-11-25T17:04:51.913Z,99220.88
2022-11-25T17:08:04.184Z,99219.00
2022-11-25T17:11:22.721Z,99227.14
2022-11-25T17:14:40.261Z,99232.30
2022-11-25T17:17:53.683Z,99227.80
2022-11-25T17:21:05.853Z,99232.89
2022-11-25T17:24:24.560Z,99232.53
2022-11-25T17:27:38.881Z,99227.28
2022-11-25T17:30:53.985Z,99234.14
2022-11-25T17:34:05.958Z,99241.66
2022-11-25T17:37:22.788Z,99226.55
2022-11-25T17:40:34.913Z,99228.23
2022-11-25T17:43:47.488Z,99232.66
2022-11-25T17:47:00.880Z,99230.95
2022-11-25T17:50:25.604Z,99231.61
2022-11-25T17:53:37.984Z,99239.33
2022-11-25T17:56:52.684Z,99245.50
2022-11-25T18:00:04.934Z,99247.58
2022-11-25T18:03:19.811Z,99258.26
2022-11-25T18:06:31.780Z,99256.94
2022-11-25T18:09:44.488Z,99249.22
2022-11-25T18:12:59.570Z,99251.95
2022-11-25T18:16:12.429Z,99260.78
2022-11-25T18:19:24.709Z,99261.80
2022-11-25T18:22:36.830Z,99243.11
2022-11-25T18:25:49.643Z,99275.09
2022-11-25T18:29:01.747Z,99267.81
2022-11-25T18:32:14.758Z,99270.24
2022-11-25T18:35:35.415Z,99263.11
2022-11-25T18:38:43.681Z,99271.20
2022-11-25T18:41:58.897Z,99275.79
2022-11-25T18:45:15.293Z,99281.87
2022-11-25T18:48:29.505Z,99275.59
2022-11-25T18:51:41.876Z,99286.70
2022-11-25T18:54:53.823Z,99295.41
2022-11-25T18:58:07.689Z,99299.84
2022-11-25T19:01:21.907Z,99289.59
2022-11-25T19:04:34.097Z,99300.86
2022-11-25T19:07:46.537Z,99289.98
2022-11-25T19:10:59.439Z,99285.09
2022-11-25T19:14:16.189Z,99290.16
2022-11-25T19:17:30.269Z,99289.98
2022-11-25T19:20:42.334Z,99293.17
2022-11-25T19:23:55.229Z,99307.27
2022-11-25T19:27:07.656Z,99297.42
2022-11-25T19:30:26.172Z,99291.80
2022-11-25T19:33:41.095Z,99304.48
2022-11-25T19:36:53.394Z,99301.59
2022-11-25T19:40:08.994Z,99319.73
2022-11-25T19:43:22.655Z,99309.67
2022-11-25T19:47:07.058Z,99317.95
2022-11-25T19:49:52.039Z,99314.03
2022-11-25T19:53:04.112Z,99312.91
2022-11-25T19:56:23.763Z,99318.83
2022-11-25T19:59:35.651Z,99315.17
2022-11-25T20:02:48.245Z,99312.23
2022-11-25T20:06:01.580Z,99312.06
2022-11-25T20:09:18.575Z,99307.36
2022-11-25T20:12:32.408Z,99318.46
2022-11-25T20:15:46.745Z,99319.97
2022-11-25T20:19:02.315Z,99324.17
2022-11-25T20:22:15.632Z,99332.00
2022-11-25T20:25:29.818Z,99325.03
2022-11-25T20:28:42.764Z,99325.03
2022-11-25T20:31:54.880Z,99335.66
2022-11-25T20:35:07.584Z,99339.52
2022-11-25T20:38:24.140Z,99341.39
2022-11-25T20:41:37.389Z,99344.03
2022-11-25T20:44:52.140Z,99349.09
2022-11-25T20:48:03.301Z,99346.45
2022-11-25T20:51:22.143Z,99357.18
2022-11-25T20:54:36.295Z,99353.97
2022-11-25T20:57:48.636Z,99351.44
2022-11-25T21:01:03.440Z,99358.77
2022-11-25T21:04:15.258Z,99351.91
2022-11-25T21:07:27.567Z,99350.20
2022-11-25T21:10:39.754Z,99356.05
2022-11-25T21:13:52.896Z,99364.59
2022-11-25T21:17:04.937Z,99370.61
2022-11-25T21:20:19.118Z,99368.73
2022-11-25T21:23:34.631Z,99365.24
2022-11-25T21:26:46.659Z,99364.48
2022-11-25T21:29:58.925Z,99362.61
2022-11-25T21:33:13.154Z,99368.83
2022-11-25T21:36:28.448Z,99375.12
2022-11-25T21:39:41.751Z,99372.48
2022-11-25T21:42:53.533Z,99373.50
2022-11-25T21:46:08.663Z,99373.88
2022-11-25T21:49:23.698Z,99363.91
2022-11-25T21:52:35.491Z,99380.35
2022-11-25T21:55:47.709Z,99386.47
2022-11-25T21:59:02.984Z,99386.47
2022-11-25T22:02:25.552Z,99393.50
2022-11-25T22:05:37.470Z,99388.14
2022-11-25T22:08:49.519Z,99395.28
2022-11-25T22:12:01.531Z,99400.73
2022-11-25T22:15:20.604Z,99390.12
2022-11-25T22:18:36.240Z,99395.38
2022-11-25T22:21:47.986Z,99397.91
2022-11-25T22:24:59.868Z,99397.91
2022-11-25T22:28:11.982Z,99390.02
2022-11-25T22:31:25.477Z,99396.99
2022-11-25T22:34:38.281Z,99400.38
2022-11-25T22:37:55.136Z,99405.80
2022-11-25T22:41:08.705Z,99405.91
2022-11-25T22:44:27.976Z,99401.85
2022-11-25T22:47:43.856Z,99406.36
2022-11-25T22:50:55.642Z,99409.55
2022-11-25T22:54:09.561Z,99404.64
2022-11-25T22:57:21.647Z,99402.17
2022-11-25T23:00:37.416Z,99405.05
2022-11-25T23:03:50.407Z,99402.11
2022-11-25T23:07:02.371Z,99416.91
2022-11-25T23:10:22.880Z,99423.27
2022-11-25T23:13:34.732Z,99416.64
2022-11-25T23:16:48.162Z,99421.08
2022-11-25T23:20:01.747Z,99429.78
2022-11-25T23:23:19.932Z,99435.38
2022-11-25T23:26:35.023Z,99434.80
2022-11-25T23:29:46.489Z,99435.81
2022-11-25T23:32:59.842Z,99435.81
2022-11-25T23:36:16.537Z,99429.55
2022-11-25T23:39:31.318Z,99431.07
2022-11-25T23:42:43.012Z,99434.55
2022-11-25T23:45:58.572Z,99436.91
2022-11-25T23:49:13.774Z,99441.05
2022-11-25T23:52:29.687Z,99436.66
2022-11-25T23:55:43.292Z,99441.05
2022-11-25T23:58:54.993Z,99439.72
